Time;durP1;ratioP1;P1;durP2;ratioP2;P2;SDS_P1;SDS_P2;PMS_P1;PMS_P2;Temp;Humidity;BMP_temperature;BMP_pressure;BME280_temperature;BME280_humidity;BME280_pressure;Samples;Min_cycle;Max_cycle;Signal;HPM_P1;HPM_P2
2021/01/05 02:30:36;;;;;;;7.86;5.56;;;;;;;2.09;77.60;98887.28;2309944;68;20346;-73
2021/01/05 02:33:50;;;;;;;9.57;6.29;;;;;;;2.09;77.70;98888.16;2329892;68;20281;-73
2021/01/05 02:36:56;;;;;;;7.34;4.93;;;;;;;2.10;77.89;98882.19;2329970;68;20316;-73
2021/01/05 02:40:31;;;;;;;9.66;6.26;;;;;;;2.12;78.12;98884.78;2334064;68;20324;-75
2021/01/05 02:44:01;;;;;;;11.23;5.90;;;;;;;2.13;78.29;98878.84;2329610;68;20315;-73
2021/01/05 02:47:30;;;;;;;11.51;5.96;;;;;;;2.13;78.29;98882.25;2329217;68;20692;-74
2021/01/05 02:50:53;;;;;;;8.41;5.60;;;;;;;2.11;78.47;98883.06;2329418;68;20316;-74
2021/01/05 02:54:21;;;;;;;8.56;5.25;;;;;;;2.07;78.47;98877.00;2328710;68;20178;-73
2021/01/05 02:57:51;;;;;;;6.01;4.49;;;;;;;2.08;78.63;98881.31;2330130;68;20662;-73
2021/01/05 03:01:01;;;;;;;5.30;4.80;;;;;;;2.08;78.86;98871.06;2329288;68;20289;-73
2021/01/05 03:04:03;;;;;;;7.16;5.14;;;;;;;2.08;79.08;98880.44;2331678;68;20286;-74
2021/01/05 03:07:31;;;;;;;6.36;4.89;;;;;;;2.07;79.00;98869.34;2331197;68;20293;-73
2021/01/05 03:10:59;;;;;;;6.35;4.97;;;;;;;2.09;79.04;98872.78;2332345;68;20323;-74
2021/01/05 03:14:26;;;;;;;5.85;4.94;;;;;;;2.08;79.18;98878.75;2331487;68;20328;-74
2021/01/05 03:17:34;;;;;;;5.68;4.51;;;;;;;2.07;79.11;98871.03;2330598;68;20305;-74
2021/01/05 03:20:58;;;;;;;6.28;5.19;;;;;;;2.06;79.22;98871.88;2331277;68;20343;-74
2021/01/05 03:24:00;;;;;;;7.13;5.76;;;;;;;2.04;79.19;98868.41;2331974;68;20325;-74
2021/01/05 03:27:03;;;;;;;7.19;5.11;;;;;;;2.02;79.16;98870.09;2331467;68;20315;-74
2021/01/05 03:30:22;;;;;;;5.89;4.99;;;;;;;2.03;79.16;98869.25;2332330;68;20286;-73
2021/01/05 03:33:24;;;;;;;7.86;5.54;;;;;;;2.01;79.25;98876.91;2330309;68;20369;-74
2021/01/05 03:36:26;;;;;;;6.91;5.07;;;;;;;2.04;79.04;98869.28;2329924;68;20719;-74
2021/01/05 03:39:28;;;;;;;6.84;5.30;;;;;;;2.04;79.03;98876.09;2331847;68;20325;-74
2021/01/05 03:42:30;;;;;;;7.28;5.32;;;;;;;2.05;79.20;98871.00;2331529;68;20331;-74
2021/01/05 03:45:33;;;;;;;6.36;5.05;;;;;;;2.06;79.22;98879.56;2331620;68;21040;-74
2021/01/05 03:48:34;;;;;;;7.66;4.76;;;;;;;2.07;79.32;98879.56;2332463;68;20286;-74
2021/01/05 03:51:36;;;;;;;7.05;5.35;;;;;;;2.06;79.17;98884.66;2331609;68;20314;-74
2021/01/05 03:54:37;;;;;;;6.49;5.19;;;;;;;2.04;79.21;98886.34;2332166;68;20327;-74
2021/01/05 03:57:39;;;;;;;6.18;4.90;;;;;;;2.03;79.23;98890.59;2330653;68;20305;-74
2021/01/05 04:00:41;;;;;;;6.79;5.18;;;;;;;1.99;79.26;98893.94;2332181;68;20325;-74
2021/01/05 04:03:42;;;;;;;6.74;5.32;;;;;;;1.98;79.51;98887.09;2328804;68;20309;-77
2021/01/05 04:06:44;;;;;;;8.43;5.78;;;;;;;1.98;79.55;98891.34;2330492;68;20297;-73
2021/01/05 04:09:46;;;;;;;7.99;5.57;;;;;;;1.99;79.63;98890.50;2329580;68;20374;-74
2021/01/05 04:12:47;;;;;;;7.00;5.91;;;;;;;1.98;79.63;98892.19;2333778;68;20310;-73
2021/01/05 04:15:49;;;;;;;7.49;5.09;;;;;;;2.00;79.80;98894.78;2329065;68;20278;-74
2021/01/05 04:18:51;;;;;;;7.66;5.80;;;;;;;2.01;79.89;98888.84;2329921;68;20294;-74
2021/01/05 04:21:52;;;;;;;7.80;5.96;;;;;;;2.00;79.96;98890.53;2330159;68;20308;-74
2021/01/05 04:24:54;;;;;;;9.89;6.18;;;;;;;1.99;80.01;98890.50;2328517;68;20324;-73
2021/01/05 04:27:56;;;;;;;7.43;5.38;;;;;;;1.99;79.92;98888.81;2329915;68;20333;-74
2021/01/05 04:30:58;;;;;;;6.25;5.55;;;;;;;2.01;79.98;98896.53;2329492;68;20363;-74
2021/01/05 04:34:04;;;;;;;8.15;6.36;;;;;;;2.01;79.86;98889.69;2330352;68;20400;-74
2021/01/05 04:37:06;;;;;;;7.76;5.71;;;;;;;2.00;79.98;98890.53;2330271;68;20312;-74
2021/01/05 04:40:18;;;;;;;7.60;6.04;;;;;;;1.99;79.91;98904.16;2330097;68;20395;-74
2021/01/05 04:43:35;;;;;;;7.66;5.79;;;;;;;2.00;80.20;98898.22;2330538;68;20319;-73
2021/01/05 04:46:51;;;;;;;7.78;5.47;;;;;;;1.99;80.34;98906.72;2330093;68;20289;-73
2021/01/05 04:50:03;;;;;;;7.19;5.25;;;;;;;1.99;80.41;98906.72;2329899;68;20309;-73
2021/01/05 04:53:15;;;;;;;7.64;5.60;;;;;;;1.99;80.24;98901.59;2328631;68;20309;-73
2021/01/05 04:56:18;;;;;;;8.68;6.21;;;;;;;2.01;80.19;98909.31;2328662;68;20329;-73
2021/01/05 04:59:24;;;;;;;8.63;5.90;;;;;;;2.02;80.18;98911.03;2330267;68;20335;-74
2021/01/05 05:02:29;;;;;;;9.49;5.59;;;;;;;2.01;80.09;98910.19;2329902;68;20346;-74
2021/01/05 05:05:43;;;;;;;7.89;5.72;;;;;;;2.04;80.13;98904.25;2328875;68;20318;-73
2021/01/05 05:08:56;;;;;;;7.90;5.78;;;;;;;2.03;80.24;98915.34;2330203;68;20297;-73
2021/01/05 05:12:35;;;;;;;10.79;6.61;;;;;;;2.00;80.04;98912.72;2329690;68;20317;-74
2021/01/05 05:15:49;;;;;;;7.29;5.09;;;;;;;1.97;79.98;98912.63;2329740;68;20341;-73
2021/01/05 05:18:50;;;;;;;6.19;4.69;;;;;;;1.97;80.23;98918.59;2330087;68;20344;-74
2021/01/05 05:22:09;;;;;;;7.66;5.69;;;;;;;1.97;80.35;98921.16;2331148;68;20327;-74
2021/01/05 05:25:25;;;;;;;7.64;5.40;;;;;;;1.98;80.37;98917.81;2329669;68;20313;-74
2021/01/05 05:28:38;;;;;;;6.68;5.56;;;;;;;1.98;80.36;98925.47;2330034;68;20480;-73
2021/01/05 05:31:43;;;;;;;7.15;5.57;;;;;;;1.98;80.32;98925.47;2330384;68;20301;-74
2021/01/05 05:35:04;;;;;;;8.27;5.32;;;;;;;2.00;80.31;98920.41;2329827;68;20323;-74
2021/01/05 05:38:20;;;;;;;6.63;4.79;;;;;;;2.01;80.26;98925.53;2331083;68;20936;-74
2021/01/05 05:41:32;;;;;;;6.70;5.28;;;;;;;2.02;80.06;98928.97;2329812;68;20286;-73
2021/01/05 05:44:48;;;;;;;7.78;4.93;;;;;;;2.01;80.16;98924.69;2330572;68;20331;-73
2021/01/05 05:47:56;;;;;;;7.89;5.89;;;;;;;2.03;80.36;98936.69;2329945;68;20282;-73
2021/01/05 05:51:07;;;;;;;7.19;4.97;;;;;;;2.01;80.18;98935.78;2329558;68;20426;-74
2021/01/05 05:54:10;;;;;;;7.16;5.07;;;;;;;2.03;80.35;98939.25;2330443;68;20186;-73
2021/01/05 05:57:42;;;;;;;7.99;5.52;;;;;;;2.04;80.20;98946.09;2329109;68;21108;-73
2021/01/05 06:00:49;;;;;;;7.86;5.19;;;;;;;2.03;79.97;98944.34;2330378;68;20264;-73
2021/01/05 06:03:50;;;;;;;9.18;5.57;;;;;;;2.03;79.84;98944.34;2330095;68;20644;-74
2021/01/05 06:06:52;;;;;;;7.88;5.53;;;;;;;2.04;80.06;98946.09;2330136;68;20765;-73
2021/01/05 06:09:53;;;;;;;8.00;5.14;;;;;;;2.09;80.18;98951.31;2330058;68;20316;-74
2021/01/05 06:12:55;;;;;;;6.18;5.03;;;;;;;2.10;79.92;98941.09;2330273;68;20359;-73
2021/01/05 06:15:57;;;;;;;7.47;5.14;;;;;;;2.12;79.93;98951.38;2328659;68;20154;-73
2021/01/05 06:19:00;;;;;;;6.84;4.79;;;;;;;2.16;80.03;98949.75;2330225;68;20417;-73
2021/01/05 06:22:02;;;;;;;6.30;4.88;;;;;;;2.17;80.03;98951.50;2330304;68;20399;-73
2021/01/05 06:25:06;;;;;;;7.18;5.28;;;;;;;2.14;79.62;98947.13;2328825;68;20360;-74
2021/01/05 06:28:07;;;;;;;7.03;5.36;;;;;;;2.15;79.67;98953.13;2330569;68;21200;-74
2021/01/05 06:31:09;;;;;;;6.71;5.14;;;;;;;2.16;79.83;98949.75;2330398;68;20311;-74
2021/01/05 06:34:11;;;;;;;7.74;5.78;;;;;;;2.18;79.98;98948.97;2329954;68;20318;-74
2021/01/05 06:37:14;;;;;;;7.09;5.26;;;;;;;2.15;79.79;98943.75;2329873;68;20733;-74
2021/01/05 06:40:20;;;;;;;9.57;4.99;;;;;;;2.17;79.94;98954.91;2330859;68;20321;-73
2021/01/05 06:43:23;;;;;;;8.48;5.27;;;;;;;2.16;79.82;98953.19;2330111;68;21339;-74
2021/01/05 06:46:24;;;;;;;7.60;5.28;;;;;;;2.18;79.74;98956.63;2330488;68;20162;-75
2021/01/05 06:49:28;;;;;;;7.32;5.05;;;;;;;2.17;79.85;98954.91;2330689;68;20859;-75
2021/01/05 06:52:30;;;;;;;7.49;4.96;;;;;;;2.21;79.74;98948.16;2330528;68;20327;-75
2021/01/05 06:55:32;;;;;;;7.90;5.74;;;;;;;2.17;79.36;98946.38;2328397;68;20320;-75
2021/01/05 06:58:33;;;;;;;9.44;5.26;;;;;;;2.17;79.50;98946.38;2329603;68;20281;-75
2021/01/05 07:01:35;;;;;;;7.29;5.43;;;;;;;2.21;79.81;98953.28;2329518;68;20290;-74
2021/01/05 07:04:36;;;;;;;7.39;5.49;;;;;;;2.21;79.70;98943.03;2329969;68;20789;-75
2021/01/05 07:07:38;;;;;;;6.96;5.18;;;;;;;2.24;79.70;98936.28;2330180;68;20290;-74
2021/01/05 07:10:40;;;;;;;10.05;6.13;;;;;;;2.23;79.46;98947.34;2330157;68;20311;-75
2021/01/05 07:13:41;;;;;;;9.24;4.97;;;;;;;2.25;79.45;98953.38;2329869;68;20987;-74
2021/01/05 07:16:43;;;;;;;7.24;5.28;;;;;;;2.25;79.41;98958.50;2329758;68;20320;-74
2021/01/05 07:19:44;;;;;;;8.57;5.49;;;;;;;2.26;79.32;98956.78;2329032;68;20325;-77
2021/01/05 07:22:46;;;;;;;6.56;5.20;;;;;;;2.24;79.24;98961.88;2330135;68;20915;-76
2021/01/05 07:25:48;;;;;;;6.59;5.07;;;;;;;2.24;79.18;98951.63;2334388;68;20341;-78
2021/01/05 07:28:49;;;;;;;7.44;5.54;;;;;;;2.23;79.32;98960.16;2329542;68;20294;-75
2021/01/05 07:31:51;;;;;;;7.88;5.80;;;;;;;2.28;79.50;98957.69;2331180;68;21287;-76
2021/01/05 07:34:52;;;;;;;10.93;5.75;;;;;;;2.29;79.40;98959.41;2330072;68;20312;-77
2021/01/05 07:37:54;;;;;;;7.10;4.80;;;;;;;2.29;79.36;98956.84;2330413;68;20289;-75
2021/01/05 07:40:57;;;;;;;9.69;5.38;;;;;;;2.32;79.40;98962.91;2330147;68;20355;-74
2021/01/05 07:43:59;;;;;;;7.00;5.32;;;;;;;2.36;79.50;98958.72;2330382;68;20323;-75
2021/01/05 07:47:00;;;;;;;8.07;5.43;;;;;;;2.35;79.33;98957.00;2332210;68;20290;-72
2021/01/05 07:50:05;;;;;;;7.21;5.25;;;;;;;2.39;79.50;98963.91;2330880;68;20298;-74
2021/01/05 07:53:07;;;;;;;7.65;5.60;;;;;;;2.38;79.21;98970.72;2330407;68;20337;-73
2021/01/05 07:56:23;;;;;;;7.51;5.44;;;;;;;2.40;79.23;98963.06;2330397;68;20344;-73
2021/01/05 07:59:25;;;;;;;7.93;5.39;;;;;;;2.44;79.36;98970.00;2329218;68;20428;-73
2021/01/05 08:02:27;;;;;;;6.68;4.61;;;;;;;2.44;79.25;98964.88;2329320;68;20332;-73
2021/01/05 08:05:31;;;;;;;7.49;5.60;;;;;;;2.43;79.07;98966.56;2329308;68;20419;-74
2021/01/05 08:08:33;;;;;;;6.34;5.04;;;;;;;2.39;78.74;98969.91;2329578;68;20346;-75
2021/01/05 08:11:36;;;;;;;7.01;5.11;;;;;;;2.38;78.76;98975.84;2329935;68;20736;-75
2021/01/05 08:14:38;;;;;;;6.57;4.88;;;;;;;2.40;78.90;98973.31;2329247;68;20992;-74
2021/01/05 08:17:41;;;;;;;6.91;5.13;;;;;;;2.38;78.73;98973.31;2328451;68;20790;-74
2021/01/05 08:20:42;;;;;;;5.74;4.86;;;;;;;2.39;78.68;98974.16;2334764;68;20330;-74
2021/01/05 08:23:44;;;;;;;6.30;5.16;;;;;;;2.37;78.55;98975.84;2329585;68;20340;-74
2021/01/05 08:26:46;;;;;;;7.59;5.01;;;;;;;2.37;78.69;98956.19;2329540;68;20327;-74
2021/01/05 08:29:47;;;;;;;7.82;5.01;;;;;;;2.33;78.36;98972.31;2329317;68;20321;-74
2021/01/05 08:32:51;;;;;;;6.24;4.50;;;;;;;2.33;78.51;98976.56;2328489;68;20437;-74
2021/01/05 08:35:52;;;;;;;6.91;5.05;;;;;;;2.34;78.61;98962.97;2328786;68;20728;-74
2021/01/05 08:38:55;;;;;;;6.29;4.46;;;;;;;2.38;78.69;98963.06;2328657;68;20353;-74
2021/01/05 08:41:57;;;;;;;7.94;4.88;;;;;;;2.39;78.79;98972.47;2328775;68;20317;-74
2021/01/05 08:44:58;;;;;;;8.76;5.57;;;;;;;2.40;78.95;98974.19;2328230;68;20322;-74
2021/01/05 08:48:00;;;;;;;6.70;5.20;;;;;;;2.41;79.15;98980.19;2328581;68;20310;-74
2021/01/05 08:51:06;;;;;;;6.46;4.97;;;;;;;2.43;79.32;98968.25;2329916;68;20726;-74
2021/01/05 08:54:08;;;;;;;5.71;4.55;;;;;;;2.41;79.46;98983.59;2330030;68;20338;-73
2021/01/05 08:57:15;;;;;;;7.39;5.13;;;;;;;2.42;79.72;98980.22;2330751;68;20821;-74
2021/01/05 09:00:18;;;;;;;8.13;5.72;;;;;;;2.43;79.88;98976.81;2329727;68;21135;-74
2021/01/05 09:03:23;;;;;;;8.13;5.46;;;;;;;2.43;79.54;98981.94;2330121;68;20546;-74
2021/01/05 09:06:25;;;;;;;6.60;5.49;;;;;;;2.46;79.51;98976.00;2328940;68;20309;-74
2021/01/05 09:09:27;;;;;;;7.30;5.66;;;;;;;2.48;79.62;98973.47;2334581;68;20306;-74
2021/01/05 09:12:33;;;;;;;9.16;5.82;;;;;;;2.46;79.33;98973.44;2330023;68;20301;-74
2021/01/05 09:15:35;;;;;;;9.30;6.00;;;;;;;2.49;79.28;98970.06;2330148;68;20294;-74
2021/01/05 09:18:37;;;;;;;8.80;5.76;;;;;;;2.50;79.20;98972.66;2329776;68;20306;-75
2021/01/05 09:21:38;;;;;;;9.38;5.68;;;;;;;2.50;79.25;98972.66;2329312;68;20286;-74
2021/01/05 09:24:40;;;;;;;10.55;5.97;;;;;;;2.53;79.26;98972.75;2320399;68;20437;-73
2021/01/05 09:27:42;;;;;;;8.91;5.56;;;;;;;2.55;79.22;98971.09;2328584;68;20327;-74
2021/01/05 09:30:46;;;;;;;12.44;6.91;;;;;;;2.56;79.17;98977.94;2329776;68;20302;-73
2021/01/05 09:33:48;;;;;;;10.19;5.96;;;;;;;2.52;79.04;98975.28;2323399;68;21345;-74
2021/01/05 09:36:51;;;;;;;13.38;6.25;;;;;;;2.51;79.02;98973.53;2327217;68;20311;-74
2021/01/05 09:39:53;;;;;;;10.32;6.07;;;;;;;2.54;79.11;98981.31;2328711;68;20293;-74
2021/01/05 09:46:15;;;;;;;7.64;5.22;;;;;;;2.56;78.97;98977.94;2323158;68;20412;-73
2021/01/05 10:17:50;;;;;;;6.56;4.41;;;;;;;2.70;78.53;98980.78;2317337;68;20348;-74
2021/01/05 10:20:51;;;;;;;7.51;4.82;;;;;;;2.73;78.60;98981.72;2327742;68;20311;-74
2021/01/05 10:23:53;;;;;;;7.81;5.00;;;;;;;2.74;78.69;98982.56;2321414;68;20404;-73
2021/01/05 10:26:56;;;;;;;6.72;4.51;;;;;;;2.76;78.60;98975.78;2315440;69;20400;-74
2021/01/05 10:29:58;;;;;;;7.30;4.64;;;;;;;2.79;78.64;98973.28;2315477;69;20300;-74
2021/01/05 10:36:21;;;;;;;7.81;4.89;;;;;;;2.82;78.19;98985.28;2323358;68;20405;-73
2021/01/05 10:39:38;;;;;;;7.63;5.49;;;;;;;2.83;77.97;98976.75;2328603;68;20293;-74
2021/01/05 10:42:44;;;;;;;7.61;5.36;;;;;;;2.83;78.23;98979.31;2327249;68;20257;-73
2021/01/05 10:45:46;;;;;;;5.66;4.61;;;;;;;2.82;78.14;98977.59;2322587;68;20337;-73
2021/01/05 10:48:47;;;;;;;6.39;4.60;;;;;;;2.82;78.37;98975.88;2321630;68;20290;-73
2021/01/05 10:51:51;;;;;;;7.01;4.66;;;;;;;2.85;78.26;98967.38;2322558;68;20275;-73
2021/01/05 10:54:53;;;;;;;6.81;4.84;;;;;;;2.86;78.15;98969.97;2321691;68;21015;-73
2021/01/05 10:57:55;;;;;;;6.85;4.93;;;;;;;2.86;77.89;98971.69;2321720;68;20370;-74
2021/01/05 11:00:56;;;;;;;5.61;4.20;;;;;;;2.89;77.90;98972.63;2320841;68;20875;-74
2021/01/05 11:03:58;;;;;;;6.20;4.84;;;;;;;2.91;77.96;98977.78;2321492;68;20303;-73
2021/01/05 11:07:14;;;;;;;5.39;4.41;;;;;;;2.90;77.81;98974.34;2320723;68;20426;-74
2021/01/05 11:10:17;;;;;;;6.40;4.59;;;;;;;2.91;77.75;98972.66;2320723;68;20727;-74
2021/01/05 11:13:19;;;;;;;5.94;4.32;;;;;;;2.92;77.67;98971.81;2320989;68;20332;-74
2021/01/05 11:16:21;;;;;;;6.59;4.74;;;;;;;2.94;77.72;98965.00;2321903;68;20271;-76
2021/01/05 11:19:23;;;;;;;4.89;4.00;;;;;;;2.95;77.66;98966.75;2321362;68;20315;-74
2021/01/05 11:22:24;;;;;;;6.09;4.56;;;;;;;2.97;77.59;98960.81;2321502;68;20341;-74
2021/01/05 11:25:27;;;;;;;5.75;4.30;;;;;;;2.98;77.45;98951.41;2320999;68;20710;-74
2021/01/05 11:28:29;;;;;;;6.07;3.81;;;;;;;2.99;77.37;98956.56;2321893;68;20299;-74
2021/01/05 11:31:31;;;;;;;5.50;4.26;;;;;;;2.99;77.30;98959.13;2322242;68;20818;-74
2021/01/05 11:34:32;;;;;;;6.39;4.49;;;;;;;2.99;77.18;98953.13;2320347;68;20279;-74
2021/01/05 11:37:35;;;;;;;7.60;4.15;;;;;;;2.95;76.98;98951.34;2320669;68;20343;-73
2021/01/05 11:40:37;;;;;;;5.15;4.18;;;;;;;2.96;77.19;98953.94;2321096;68;20303;-74
2021/01/05 11:43:39;;;;;;;7.38;4.76;;;;;;;2.99;77.24;98955.69;2321194;68;20744;-74
2021/01/05 11:46:40;;;;;;;5.49;4.39;;;;;;;2.99;77.26;98948.00;2321395;68;20295;-74
2021/01/05 11:49:42;;;;;;;4.88;4.05;;;;;;;2.96;77.26;98953.09;2322078;68;20306;-74
2021/01/05 11:52:44;;;;;;;5.63;4.32;;;;;;;2.93;77.66;98943.63;2321989;68;20319;-74
2021/01/05 11:55:46;;;;;;;6.35;4.13;;;;;;;2.99;77.67;98950.56;2320632;68;20800;-74
2021/01/05 11:58:48;;;;;;;5.94;4.35;;;;;;;3.00;77.39;98949.72;2321377;68;20291;-74
2021/01/05 12:01:50;;;;;;;5.76;4.78;;;;;;;3.00;77.33;98945.47;2320728;68;20312;-74
2021/01/05 12:04:52;;;;;;;5.81;4.22;;;;;;;3.02;77.38;98948.06;2322265;68;20397;-73
2021/01/05 12:07:56;;;;;;;5.57;3.99;;;;;;;3.02;77.54;98942.94;2323217;68;20315;-74
2021/01/05 12:10:58;;;;;;;4.64;3.84;;;;;;;3.03;77.62;98939.53;2322899;68;20322;-74
2021/01/05 12:14:01;;;;;;;4.90;4.10;;;;;;;3.02;77.48;98942.94;2321111;68;20391;-74
2021/01/05 12:17:15;;;;;;;5.84;3.92;;;;;;;3.01;77.17;98939.50;2322084;68;20445;-73
2021/01/05 12:20:17;;;;;;;3.89;3.31;;;;;;;3.00;77.09;98935.22;2322849;68;20316;-74
2021/01/05 12:23:19;;;;;;;4.96;3.86;;;;;;;3.01;77.15;98936.06;2322286;68;20308;-74
2021/01/05 12:26:30;;;;;;;4.24;3.50;;;;;;;2.99;77.03;98936.03;2323073;68;20364;-74
2021/01/05 12:29:37;;;;;;;4.25;3.56;;;;;;;2.99;76.96;98932.63;2323885;68;20295;-74
2021/01/05 12:32:39;;;;;;;5.13;3.74;;;;;;;2.99;76.98;98930.91;2322930;68;20306;-74
2021/01/05 12:35:44;;;;;;;3.65;3.17;;;;;;;2.98;77.08;98931.75;2323411;68;20639;-75
2021/01/05 12:38:45;;;;;;;5.04;3.91;;;;;;;3.00;77.19;98931.78;2324137;68;20357;-74
2021/01/05 12:41:47;;;;;;;3.99;3.05;;;;;;;2.99;77.10;98927.50;2322765;68;20309;-75
2021/01/05 12:44:52;;;;;;;3.88;3.14;;;;;;;2.99;77.06;98930.06;2321276;68;20365;-74
2021/01/05 12:47:54;;;;;;;3.91;3.17;;;;;;;2.96;76.78;98927.44;2323490;68;20486;-74
2021/01/05 12:50:55;;;;;;;4.00;3.56;;;;;;;2.98;77.05;98923.19;2323214;68;21589;-74
2021/01/05 12:53:57;;;;;;;3.36;3.00;;;;;;;3.00;77.15;98922.38;2322605;68;20411;-74
2021/01/05 12:57:00;;;;;;;4.65;3.39;;;;;;;3.00;77.26;98924.94;2322915;68;20413;-74
2021/01/05 13:00:03;;;;;;;4.39;3.28;;;;;;;3.00;76.89;98926.66;2322198;68;20295;-74
2021/01/05 13:03:05;;;;;;;4.91;4.06;;;;;;;3.01;76.85;98925.81;2323091;68;20703;-74
2021/01/05 13:06:07;;;;;;;4.20;3.46;;;;;;;3.02;77.14;98917.28;2322089;68;20301;-73
2021/01/05 13:09:12;;;;;;;4.70;3.06;;;;;;;3.02;77.13;98928.41;2323329;68;20291;-74
2021/01/05 13:12:13;;;;;;;3.49;2.97;;;;;;;3.05;77.29;98925.03;2322772;68;20295;-74
2021/01/05 13:15:15;;;;;;;5.60;3.42;;;;;;;3.02;77.29;98924.97;2323078;68;20532;-73
2021/01/05 13:18:17;;;;;;;3.91;2.76;;;;;;;3.03;77.13;98925.00;2322965;68;20926;-73
2021/01/05 13:21:29;;;;;;;5.00;3.03;;;;;;;3.03;77.13;98925.00;2322666;68;20657;-73
2021/01/05 13:24:31;;;;;;;3.71;3.21;;;;;;;3.03;77.04;98931.84;2321937;68;20318;-73
2021/01/05 13:27:33;;;;;;;6.03;3.01;;;;;;;3.04;77.28;98931.00;2322091;68;20380;-73
2021/01/05 13:30:34;;;;;;;4.15;2.97;;;;;;;3.03;77.21;98927.56;2322730;68;20310;-73
2021/01/05 13:33:36;;;;;;;3.24;2.55;;;;;;;3.03;77.27;98927.56;2323426;68;20910;-74
2021/01/05 13:36:37;;;;;;;4.69;3.16;;;;;;;3.02;77.11;98918.16;2322996;68;20875;-73
2021/01/05 13:39:39;;;;;;;3.80;3.03;;;;;;;3.02;77.18;98928.41;2322826;68;20537;-73
2021/01/05 13:42:42;;;;;;;4.20;3.28;;;;;;;3.01;77.25;98924.13;2322411;68;20409;-74
2021/01/05 13:45:43;;;;;;;4.07;3.29;;;;;;;3.04;77.29;98936.13;2322433;68;20291;-74
2021/01/05 13:48:45;;;;;;;4.32;3.04;;;;;;;2.99;77.16;98930.91;2323143;68;20296;-74
2021/01/05 13:51:48;;;;;;;4.56;3.49;;;;;;;2.98;77.19;98938.59;2322457;68;20719;-74
2021/01/05 13:54:50;;;;;;;3.94;3.54;;;;;;;2.98;77.22;98929.19;2324308;68;20847;-75
2021/01/05 13:57:52;;;;;;;4.96;3.60;;;;;;;3.01;77.30;98931.81;2322960;68;20387;-73
2021/01/05 14:00:54;;;;;;;4.56;3.41;;;;;;;3.03;77.46;98937.81;2323172;68;20300;-72
2021/01/05 14:03:56;;;;;;;4.28;3.47;;;;;;;3.05;77.38;98930.16;2322907;68;20419;-72
2021/01/05 14:07:01;;;;;;;4.36;3.61;;;;;;;3.04;76.93;98934.41;2323363;68;20431;-72
2021/01/05 14:10:04;;;;;;;5.54;3.64;;;;;;;3.02;77.11;98936.09;2322101;68;20295;-72
2021/01/05 14:13:05;;;;;;;4.75;3.69;;;;;;;3.03;77.28;98937.81;2322789;68;20636;-72
2021/01/05 14:16:07;;;;;;;4.29;3.46;;;;;;;3.00;77.34;98935.22;2323214;68;20316;-73
2021/01/05 14:19:10;;;;;;;4.90;3.56;;;;;;;2.99;77.30;98932.63;2323224;68;20997;-72
2021/01/05 14:22:12;;;;;;;4.69;3.81;;;;;;;2.94;77.65;98942.81;2322747;68;20328;-72
2021/01/05 14:25:13;;;;;;;4.49;3.64;;;;;;;2.97;77.89;98940.28;2322282;68;20720;-72
2021/01/05 14:28:15;;;;;;;4.43;3.95;;;;;;;2.98;77.82;98944.56;2322997;68;20326;-72
2021/01/05 14:31:20;;;;;;;5.70;4.22;;;;;;;2.97;77.79;98947.97;2324041;68;20368;-71
2021/01/05 14:34:23;;;;;;;6.19;4.01;;;;;;;2.95;77.93;98939.41;2322919;68;20352;-72
2021/01/05 14:37:25;;;;;;;5.71;4.07;;;;;;;2.94;77.88;98952.19;2322871;68;20920;-72
2021/01/05 14:40:27;;;;;;;5.82;4.09;;;;;;;2.91;78.14;98949.56;2322762;68;20350;-71
2021/01/05 14:43:28;;;;;;;5.90;3.90;;;;;;;2.91;78.27;98950.44;2322863;68;20346;-72
2021/01/05 14:46:37;;;;;;;5.81;4.54;;;;;;;2.88;78.33;98949.53;2322488;68;20328;-72
2021/01/05 14:49:40;;;;;;;5.55;4.40;;;;;;;2.87;78.55;98958.91;2322542;68;20808;-73
2021/01/05 14:52:41;;;;;;;6.09;4.72;;;;;;;2.86;78.73;98948.59;2321654;68;20175;-72
2021/01/05 14:55:43;;;;;;;6.95;5.36;;;;;;;2.86;78.69;98961.41;2321682;68;20318;-73
2021/01/05 14:58:45;;;;;;;7.07;4.91;;;;;;;2.87;78.68;98950.34;2322692;68;20311;-73
2021/01/05 15:01:46;;;;;;;6.30;4.59;;;;;;;2.89;78.75;98949.56;2324021;68;20334;-72
2021/01/05 15:04:50;;;;;;;7.19;4.95;;;;;;;2.88;78.78;98949.53;2322926;68;21584;-72
2021/01/05 15:07:52;;;;;;;7.47;4.99;;;;;;;2.89;78.78;98948.69;2322904;68;20331;-72
2021/01/05 15:10:54;;;;;;;6.72;5.29;;;;;;;2.87;78.74;98955.47;2323870;68;20433;-72
2021/01/05 15:13:55;;;;;;;10.41;6.11;;;;;;;2.87;79.03;98955.47;2322665;68;20356;-73
2021/01/05 15:16:57;;;;;;;12.96;7.76;;;;;;;2.85;78.96;98954.56;2322779;68;20302;-73
2021/01/05 15:19:59;;;;;;;11.15;7.26;;;;;;;2.85;79.12;98950.31;2322422;68;20311;-72
2021/01/05 15:23:01;;;;;;;10.29;6.21;;;;;;;2.85;79.31;98955.44;2323086;68;20320;-73
2021/01/05 15:26:03;;;;;;;11.44;7.35;;;;;;;2.82;79.18;98957.94;2323725;68;20311;-72
2021/01/05 15:29:06;;;;;;;9.16;6.25;;;;;;;2.83;79.25;98964.78;2322489;68;20295;-72
2021/01/05 15:32:07;;;;;;;7.29;5.46;;;;;;;2.81;79.29;98960.47;2323548;68;20387;-72
2021/01/05 15:35:10;;;;;;;10.24;7.16;;;;;;;2.79;79.32;98962.16;2322206;68;20298;-72
2021/01/05 15:38:11;;;;;;;7.84;5.29;;;;;;;2.79;79.40;98964.72;2323427;68;20314;-72
2021/01/05 15:41:14;;;;;;;7.66;5.90;;;;;;;2.76;79.25;98960.41;2323511;68;20327;-72
2021/01/05 15:44:16;;;;;;;8.90;6.25;;;;;;;2.72;79.37;98963.75;2322784;68;20524;-73
2021/01/05 15:47:18;;;;;;;7.36;5.38;;;;;;;2.76;79.53;98954.41;2323112;68;20305;-72
2021/01/05 15:50:20;;;;;;;8.90;5.71;;;;;;;2.74;79.57;98959.50;2322429;68;20298;-72
2021/01/05 15:53:23;;;;;;;8.14;5.30;;;;;;;2.74;79.70;98954.38;2322184;68;20306;-73
2021/01/05 15:56:24;;;;;;;8.34;5.32;;;;;;;2.75;79.80;98962.94;2320287;68;20316;-71
2021/01/05 15:59:26;;;;;;;8.69;6.20;;;;;;;2.75;79.65;98973.19;2321905;68;20343;-72
2021/01/05 16:02:28;;;;;;;8.60;5.86;;;;;;;2.73;79.72;98966.34;2321239;68;20336;-72
2021/01/05 16:05:30;;;;;;;8.54;5.82;;;;;;;2.71;79.63;98962.88;2322358;68;20314;-73
2021/01/05 16:08:31;;;;;;;9.32;6.00;;;;;;;2.72;79.75;98958.63;2322805;68;20866;-72
2021/01/05 16:11:34;;;;;;;9.49;5.81;;;;;;;2.72;79.72;98967.16;2322842;68;20306;-72
2021/01/05 16:14:36;;;;;;;9.00;6.09;;;;;;;2.72;79.84;98968.88;2322732;68;20356;-72
2021/01/05 16:17:37;;;;;;;8.40;6.01;;;;;;;2.72;79.92;98972.28;2322839;68;20291;-72
2021/01/05 16:20:39;;;;;;;9.38;6.29;;;;;;;2.71;79.91;98972.28;2322304;68;20278;-72
2021/01/05 16:23:41;;;;;;;7.41;5.46;;;;;;;2.69;79.95;98972.25;2320187;68;20328;-71
2021/01/05 16:26:42;;;;;;;8.54;4.96;;;;;;;2.69;79.97;98969.69;2322564;68;20337;-71
2021/01/05 16:29:47;;;;;;;7.88;5.41;;;;;;;2.68;79.89;98973.03;2323305;68;20316;-72
2021/01/05 16:32:51;;;;;;;7.80;5.60;;;;;;;2.68;79.98;98965.34;2322178;68;20314;-72
2021/01/05 16:35:53;;;;;;;7.61;5.32;;;;;;;2.68;80.06;98977.31;2320874;68;20462;-72
2021/01/05 16:38:55;;;;;;;7.53;5.18;;;;;;;2.70;79.93;98978.22;2322211;68;20321;-72
2021/01/05 16:41:57;;;;;;;9.76;5.88;;;;;;;2.68;79.88;98978.16;2322607;68;20534;-72
2021/01/05 16:44:58;;;;;;;8.39;5.75;;;;;;;2.65;79.81;98969.56;2321469;68;20442;-72
2021/01/05 16:48:03;;;;;;;9.23;6.16;;;;;;;2.64;79.75;98968.69;2321980;68;20307;-72
2021/01/05 16:51:05;;;;;;;7.75;5.25;;;;;;;2.62;79.88;98962.69;2321781;68;20337;-72
2021/01/05 16:54:07;;;;;;;7.41;5.43;;;;;;;2.66;80.01;98961.03;2321308;68;20310;-72
2021/01/05 16:57:09;;;;;;;8.99;6.10;;;;;;;2.67;80.08;98963.63;2322029;68;20299;-72
2021/01/05 17:00:18;;;;;;;6.65;5.40;;;;;;;2.67;79.97;98965.31;2324012;68;20318;-72
2021/01/05 17:03:20;;;;;;;6.55;5.21;;;;;;;2.67;80.01;98965.31;2322038;68;20329;-72
2021/01/05 17:06:22;;;;;;;7.34;5.25;;;;;;;2.68;79.80;98967.06;2321720;68;20291;-72
2021/01/05 17:09:25;;;;;;;7.46;5.14;;;;;;;2.69;79.92;98963.66;2322923;68;20311;-72
2021/01/05 17:12:27;;;;;;;7.10;5.40;;;;;;;2.70;79.93;98965.41;2322888;68;20330;-72
2021/01/05 17:15:30;;;;;;;8.04;5.49;;;;;;;2.71;79.99;98969.72;2321573;68;20334;-73
2021/01/05 17:18:31;;;;;;;7.88;5.61;;;;;;;2.72;79.95;98971.44;2324068;68;20366;-73
2021/01/05 17:21:33;;;;;;;9.99;6.46;;;;;;;2.75;79.99;98963.78;2323103;68;21477;-73
2021/01/05 17:24:35;;;;;;;9.57;6.45;;;;;;;2.75;79.97;98963.78;2322649;68;20361;-72
2021/01/05 17:27:37;;;;;;;8.41;5.96;;;;;;;2.75;79.96;98971.50;2323108;68;20808;-72
2021/01/05 17:30:39;;;;;;;10.13;6.95;;;;;;;2.73;80.01;98961.22;2322823;68;20340;-73
2021/01/05 17:33:42;;;;;;;13.77;7.34;;;;;;;2.76;80.04;98969.78;2321731;68;20291;-72
2021/01/05 17:36:45;;;;;;;8.84;6.05;;;;;;;2.76;79.95;98959.53;2326337;68;20318;-72
2021/01/05 17:39:47;;;;;;;11.41;6.89;;;;;;;2.77;79.85;98964.69;2323130;68;20348;-72
2021/01/05 17:42:49;;;;;;;9.02;6.31;;;;;;;2.79;79.95;98959.59;2323142;68;20360;-72